createdAt,value
2022-11-12T00:00:43.119Z,10.93
2022-11-12T00:03:28.481Z,11.20
2022-11-12T00:06:14.094Z,12.10
2022-11-12T00:08:59.575Z,13.37
2022-11-12T00:11:45.163Z,11.87
2022-11-12T00:14:30.470Z,13.60
2022-11-12T00:17:16.010Z,11.07
2022-11-12T00:20:01.571Z,12.53
2022-11-12T00:22:46.710Z,12.57
2022-11-12T00:25:32.213Z,10.50
2022-11-12T00:28:17.715Z,11.83
2022-11-12T00:31:08.378Z,10.33
2022-11-12T00:33:55.091Z,9.87
2022-11-12T00:36:40.312Z,10.53
2022-11-12T00:39:25.718Z,11.37
2022-11-12T00:42:11.360Z,9.40
2022-11-12T00:44:56.651Z,14.50
2022-11-12T00:47:42.289Z,15.13
2022-11-12T00:50:27.692Z,11.57
2022-11-12T00:53:13.579Z,11.77
2022-11-12T00:56:06.660Z,10.70
2022-11-12T00:58:51.800Z,9.13
2022-11-12T01:01:37.212Z,11.57
2022-11-12T01:04:23.020Z,11.80
2022-11-12T01:07:08.051Z,14.07
2022-11-12T01:09:53.397Z,9.47
2022-11-12T01:12:38.682Z,10.77
2022-11-12T01:15:24.268Z,14.30
2022-11-12T01:18:09.944Z,11.50
2022-11-12T01:20:55.626Z,13.23
2022-11-12T01:23:42.402Z,10.17
2022-11-12T01:26:31.372Z,11.47
2022-11-12T01:29:16.576Z,9.33
2022-11-12T01:32:02.065Z,9.27
2022-11-12T01:34:47.522Z,10.70
2022-11-12T01:37:32.925Z,10.27
2022-11-12T01:40:18.463Z,9.97
2022-11-12T01:43:05.541Z,11.00
2022-11-12T01:45:51.578Z,11.33
2022-11-12T01:48:47.862Z,10.03
2022-11-12T01:51:37.468Z,10.70
2022-11-12T01:54:23.264Z,8.50
2022-11-12T01:57:09.951Z,9.67
2022-11-12T02:00:00.601Z,11.90
2022-11-12T02:02:52.217Z,8.60
2022-11-12T02:05:38.836Z,8.73
2022-11-12T02:08:25.377Z,12.50
2022-11-12T02:11:19.512Z,8.17
2022-11-12T02:14:05.477Z,7.80
2022-11-12T02:16:50.978Z,10.77
2022-11-12T02:19:37.775Z,7.97
2022-11-12T02:22:23.414Z,7.80
2022-11-12T02:25:12.299Z,8.00
2022-11-12T02:27:58.891Z,8.10
2022-11-12T02:30:47.099Z,6.67
2022-11-12T02:33:32.354Z,7.60
2022-11-12T02:36:17.666Z,11.20
2022-11-12T02:39:05.305Z,7.87
2022-11-12T02:41:50.569Z,9.30
2022-11-12T02:44:36.181Z,6.53
2022-11-12T02:47:21.448Z,9.77
2022-11-12T02:50:07.334Z,12.13
2022-11-12T02:52:52.572Z,9.20
2022-11-12T02:55:38.248Z,9.70
2022-11-12T02:58:23.747Z,8.47
2022-11-12T03:01:09.752Z,8.07
2022-11-12T03:03:55.596Z,7.67
2022-11-12T03:06:41.098Z,6.83
2022-11-12T03:09:26.482Z,6.57
2022-11-12T03:12:11.851Z,6.20
2022-11-12T03:14:57.516Z,8.97
2022-11-12T03:17:43.116Z,8.70
2022-11-12T03:20:29.875Z,6.60
2022-11-12T03:23:15.155Z,7.47
2022-11-12T03:26:03.046Z,9.63
2022-11-12T03:28:48.774Z,6.70
2022-11-12T03:31:35.367Z,7.57
2022-11-12T03:34:20.569Z,6.23
2022-11-12T03:37:09.505Z,9.27
2022-11-12T03:39:55.021Z,8.13
2022-11-12T03:42:45.289Z,8.57
2022-11-12T03:45:30.928Z,7.33
2022-11-12T03:48:16.107Z,9.53
2022-11-12T03:51:01.789Z,8.20
2022-11-12T03:53:47.300Z,6.40
2022-11-12T03:56:32.534Z,7.50
2022-11-12T03:59:17.909Z,7.67
2022-11-12T04:02:03.435Z,7.37
2022-11-12T04:05:07.308Z,10.17
2022-11-12T04:08:18.607Z,7.63
2022-11-12T04:11:13.113Z,7.10
2022-11-12T04:13:59.002Z,7.70
2022-11-12T04:17:02.891Z,15.00
2022-11-12T04:20:06.719Z,10.13
2022-11-12T04:22:52.002Z,7.10
2022-11-12T04:25:56.294Z,6.67
2022-11-12T04:29:01.727Z,11.63
2022-11-12T04:31:47.106Z,8.50
2022-11-12T04:34:34.464Z,8.43
2022-11-12T04:37:23.521Z,10.57
2022-11-12T04:40:48.498Z,9.10
2022-11-12T04:43:52.523Z,6.60
2022-11-12T04:46:37.797Z,7.97
2022-11-12T04:49:23.068Z,10.07
2022-11-12T04:52:09.365Z,8.27
2022-11-12T04:54:55.013Z,9.07
2022-11-12T04:57:40.222Z,7.53
2022-11-12T05:00:26.015Z,11.70
2022-11-12T05:03:11.395Z,8.37
2022-11-12T05:06:04.228Z,10.23
2022-11-12T05:08:49.727Z,9.60
2022-11-12T05:11:35.330Z,9.60
2022-11-12T05:14:21.716Z,8.57
2022-11-12T05:17:07.397Z,8.03
2022-11-12T05:19:52.672Z,8.83
2022-11-12T05:22:47.868Z,8.67
2022-11-12T05:25:39.817Z,6.53
2022-11-12T05:28:25.401Z,7.97
2022-11-12T05:31:10.976Z,6.27
2022-11-12T05:33:56.560Z,10.70
2022-11-12T05:36:41.783Z,7.93
2022-11-12T05:39:27.108Z,8.87
2022-11-12T05:42:14.098Z,8.50
2022-11-12T05:44:59.793Z,12.00
2022-11-12T05:47:45.339Z,9.40
2022-11-12T05:50:39.795Z,7.97
2022-11-12T05:53:30.769Z,8.23
2022-11-12T05:56:16.716Z,7.83
2022-11-12T05:59:03.837Z,7.93
2022-11-12T06:01:49.575Z,8.73
2022-11-12T06:04:35.085Z,12.37
2022-11-12T06:07:21.918Z,9.97
2022-11-12T06:10:08.003Z,9.83
2022-11-12T06:12:53.671Z,10.17
2022-11-12T06:15:39.612Z,8.00
2022-11-12T06:18:26.073Z,6.57
2022-11-12T06:21:24.245Z,8.60
2022-11-12T06:24:10.048Z,6.47
2022-11-12T06:26:55.532Z,7.30
2022-11-12T06:29:40.908Z,6.13
2022-11-12T06:32:26.357Z,5.87
2022-11-12T06:35:11.853Z,8.73
2022-11-12T06:37:57.624Z,8.47
2022-11-12T06:40:43.123Z,9.17
2022-11-12T06:43:30.838Z,7.40
2022-11-12T06:46:17.346Z,9.90
2022-11-12T06:49:02.638Z,13.13
2022-11-12T06:51:50.493Z,7.83
2022-11-12T06:54:35.558Z,9.97
2022-11-12T06:57:21.085Z,10.97
2022-11-12T07:00:07.623Z,10.40
2022-11-12T07:02:53.160Z,7.53
2022-11-12T07:05:39.227Z,10.77
2022-11-12T07:08:25.261Z,11.40
2022-11-12T07:11:11.473Z,8.70
2022-11-12T07:13:56.906Z,13.20
2022-11-12T07:16:42.795Z,12.77
2022-11-12T07:19:28.291Z,8.90
2022-11-12T07:22:13.676Z,11.00
2022-11-12T07:24:59.073Z,9.83
2022-11-12T07:27:44.859Z,11.60
2022-11-12T07:30:29.850Z,13.33
2022-11-12T07:33:15.245Z,13.83
2022-11-12T07:36:10.040Z,10.47
2022-11-12T07:38:55.272Z,10.67
2022-11-12T07:41:40.645Z,8.70
2022-11-12T07:44:26.952Z,12.60
2022-11-12T07:47:12.355Z,10.67
2022-11-12T07:49:57.799Z,9.57
2022-11-12T07:52:43.262Z,12.13
2022-11-12T07:55:28.919Z,11.90
2022-11-12T07:58:14.416Z,17.13
2022-11-12T08:01:11.272Z,11.97
2022-11-12T08:03:58.640Z,14.63
2022-11-12T08:06:44.692Z,9.23
2022-11-12T08:09:29.874Z,9.33
2022-11-12T08:12:15.376Z,8.93
2022-11-12T08:15:00.605Z,5.57
2022-11-12T08:17:46.262Z,6.87
2022-11-12T08:20:31.948Z,5.50
2022-11-12T08:23:17.119Z,9.90
2022-11-12T08:26:07.425Z,9.33
2022-11-12T08:28:53.601Z,7.50
2022-11-12T08:31:43.830Z,9.87
2022-11-12T08:34:29.456Z,11.53
2022-11-12T08:37:14.815Z,9.97
2022-11-12T08:40:00.278Z,10.77
2022-11-12T08:42:45.735Z,10.30
2022-11-12T08:45:36.722Z,12.60
2022-11-12T08:48:22.063Z,14.73
2022-11-12T08:51:07.944Z,9.47
2022-11-12T08:53:53.561Z,11.53
2022-11-12T08:56:39.892Z,13.40
2022-11-12T08:59:26.043Z,11.40
2022-11-12T09:02:13.027Z,12.07
2022-11-12T09:04:58.762Z,14.20
2022-11-12T09:07:49.837Z,13.63
2022-11-12T09:10:36.753Z,12.80
2022-11-12T09:13:22.036Z,13.60
2022-11-12T09:16:07.900Z,13.40
2022-11-12T09:18:53.672Z,14.20
2022-11-12T09:21:38.792Z,17.23
2022-11-12T09:24:24.183Z,10.13
2022-11-12T09:27:09.766Z,13.80
2022-11-12T09:29:55.430Z,10.07
2022-11-12T09:32:41.162Z,13.33
2022-11-12T09:35:26.740Z,10.23
2022-11-12T09:38:14.777Z,8.50
2022-11-12T09:41:13.251Z,14.13
2022-11-12T09:44:04.475Z,10.77
2022-11-12T09:46:57.373Z,8.37
2022-11-12T09:49:51.902Z,10.93
2022-11-12T09:52:37.437Z,9.83
2022-11-12T09:55:28.712Z,10.67
2022-11-12T09:58:16.559Z,12.87
2022-11-12T10:01:11.383Z,8.93
2022-11-12T10:04:18.243Z,7.30
2022-11-12T10:07:13.858Z,8.27
2022-11-12T10:10:30.301Z,6.63
2022-11-12T10:13:37.459Z,8.20
2022-11-12T10:16:45.230Z,8.63
2022-11-12T10:19:39.832Z,8.50
2022-11-12T10:22:43.212Z,9.00
2022-11-12T10:25:28.423Z,8.43
2022-11-12T10:28:38.197Z,8.60
2022-11-12T10:31:24.600Z,6.77
2022-11-12T10:34:26.548Z,5.77
2022-11-12T10:37:43.896Z,5.63
2022-11-12T10:40:37.048Z,5.63
2022-11-12T10:43:31.850Z,6.30
2022-11-12T10:46:42.435Z,8.70
2022-11-12T10:49:27.988Z,6.70
2022-11-12T10:52:24.527Z,10.67
2022-11-12T10:55:19.858Z,7.77
2022-11-12T10:58:11.501Z,8.67
2022-11-12T11:04:52.817Z,11.13
2022-11-12T11:07:38.484Z,5.87
2022-11-12T11:10:29.467Z,7.77
2022-11-12T11:13:25.996Z,7.50
2022-11-12T11:16:26.941Z,7.37
2022-11-12T11:19:12.856Z,6.70
2022-11-12T11:22:07.585Z,8.07
2022-11-12T11:25:28.852Z,6.60
2022-11-12T11:28:39.959Z,3.63
2022-11-12T11:31:50.493Z,5.23
2022-11-12T11:34:55.014Z,5.83
2022-11-12T11:37:52.285Z,9.20
2022-11-12T11:41:05.238Z,3.30
2022-11-12T11:43:53.846Z,2.83
2022-11-12T11:46:54.878Z,2.60
2022-11-12T11:50:28.306Z,3.67
2022-11-12T11:53:22.158Z,2.43
2022-11-12T11:56:19.339Z,6.07
2022-11-12T11:59:38.106Z,2.50
2022-11-12T12:03:06.659Z,5.60
2022-11-12T12:06:16.225Z,3.33
2022-11-12T12:09:11.997Z,3.53
2022-11-12T12:12:24.507Z,4.13
2022-11-12T12:15:42.949Z,2.40
2022-11-12T12:18:33.007Z,4.30
2022-11-12T12:21:24.735Z,2.53
2022-11-12T12:24:28.428Z,3.90
2022-11-12T12:27:20.979Z,2.50
2022-11-12T12:30:19.184Z,2.43
2022-11-12T12:33:12.839Z,6.13
2022-11-12T12:36:21.353Z,2.30
2022-11-12T12:39:27.915Z,2.60
2022-11-12T12:42:23.961Z,2.97
2022-11-12T12:45:36.300Z,4.63
2022-11-12T12:48:29.088Z,7.30
2022-11-12T12:51:15.415Z,3.17
2022-11-12T12:54:01.487Z,3.30
2022-11-12T12:56:51.773Z,2.80
2022-11-12T12:59:44.854Z,3.93
2022-11-12T13:02:49.991Z,5.70
2022-11-12T13:05:43.871Z,1.83
2022-11-12T13:08:41.357Z,1.90
2022-11-12T13:12:06.541Z,3.30
2022-11-12T13:15:08.366Z,6.17
2022-11-12T13:17:56.037Z,4.37
2022-11-12T13:20:44.913Z,4.90
2022-11-12T13:24:04.862Z,2.13
2022-11-12T13:27:02.970Z,3.13
2022-11-12T13:29:55.554Z,4.07
2022-11-12T13:32:49.829Z,4.97
2022-11-12T13:35:37.122Z,5.67
2022-11-12T13:38:25.038Z,3.23
2022-11-12T13:41:43.196Z,7.90
2022-11-12T13:44:34.452Z,4.10
2022-11-12T13:47:22.184Z,3.60
2022-11-12T13:50:10.263Z,4.17
2022-11-12T13:52:56.153Z,3.00
2022-11-12T13:55:49.736Z,1.70
2022-11-12T13:58:36.834Z,1.80
2022-11-12T14:01:24.334Z,2.53
2022-11-12T14:04:22.220Z,2.60
2022-11-12T14:07:40.570Z,3.07
2022-11-12T14:11:35.483Z,1.83
2022-11-12T14:14:58.927Z,4.67
2022-11-12T14:18:41.357Z,2.77
2022-11-12T14:21:30.407Z,1.93
2022-11-12T14:24:17.068Z,3.13
2022-11-12T14:27:04.401Z,3.07
2022-11-12T14:30:10.696Z,2.53
2022-11-12T14:33:12.129Z,5.40
2022-11-12T14:36:22.793Z,3.00
2022-11-12T14:39:17.647Z,2.80
2022-11-12T14:42:21.109Z,1.93
2022-11-12T14:45:35.161Z,2.60
2022-11-12T14:48:22.052Z,2.73
2022-11-12T14:51:12.255Z,5.30
2022-11-12T14:54:07.935Z,3.00
2022-11-12T14:57:00.224Z,7.23
2022-11-12T14:59:47.344Z,4.10
2022-11-12T15:02:50.303Z,2.77
2022-11-12T15:05:54.634Z,3.93
2022-11-12T15:08:40.588Z,3.27
2022-11-12T15:11:28.780Z,4.83
2022-11-12T15:14:21.977Z,2.10
2022-11-12T15:17:07.318Z,1.80
2022-11-12T15:20:01.884Z,3.23
2022-11-12T15:22:57.117Z,3.23
2022-11-12T15:25:47.843Z,2.80
2022-11-12T15:28:33.874Z,2.87
2022-11-12T15:31:22.167Z,6.93
2022-11-12T15:34:28.545Z,4.63
2022-11-12T15:37:20.290Z,7.53
2022-11-12T15:40:16.266Z,6.03
2022-11-12T15:43:02.278Z,2.73
2022-11-12T15:45:49.815Z,5.70
2022-11-12T15:51:55.077Z,3.43
2022-11-12T15:54:51.477Z,4.10
2022-11-12T15:57:54.744Z,5.23
2022-11-12T16:00:44.616Z,6.60
2022-11-12T16:03:31.447Z,6.60
2022-11-12T16:06:16.975Z,11.57
2022-11-12T16:09:02.467Z,8.17
2022-11-12T16:11:50.552Z,9.47
2022-11-12T16:14:54.444Z,31.53
2022-11-12T16:17:54.750Z,85.67
2022-11-12T16:20:44.429Z,59.93
2022-11-12T16:23:55.878Z,36.50
2022-11-12T16:26:52.062Z,30.20
2022-11-12T16:29:51.894Z,23.30
2022-11-12T16:32:38.192Z,33.67
2022-11-12T16:35:23.764Z,17.43
2022-11-12T16:38:16.747Z,18.20
2022-11-12T16:41:02.457Z,14.07
2022-11-12T16:43:48.242Z,11.30
2022-11-12T16:46:42.146Z,9.47
2022-11-12T16:49:27.853Z,5.83
2022-11-12T16:52:51.681Z,6.93
2022-11-12T16:55:37.521Z,8.80
2022-11-12T16:58:32.082Z,11.10
2022-11-12T17:01:34.291Z,8.13
2022-11-12T17:04:19.479Z,7.73
2022-11-12T17:07:08.247Z,7.90
2022-11-12T17:09:53.918Z,8.57
2022-11-12T17:12:39.398Z,10.20
2022-11-12T17:15:25.077Z,7.23
2022-11-12T17:18:10.589Z,6.07
2022-11-12T17:20:56.579Z,5.80
2022-11-12T17:23:42.391Z,7.07
2022-11-12T17:26:27.982Z,5.97
2022-11-12T17:29:13.225Z,9.93
2022-11-12T17:31:58.679Z,7.60
2022-11-12T17:34:44.160Z,8.23
2022-11-12T17:37:29.558Z,5.73
2022-11-12T17:40:15.410Z,8.07
2022-11-12T17:43:00.976Z,8.00
2022-11-12T17:45:51.257Z,9.30
2022-11-12T17:48:37.453Z,6.20
2022-11-12T17:51:24.649Z,13.97
2022-11-12T17:54:10.368Z,7.53
2022-11-12T17:56:55.513Z,8.53
2022-11-12T17:59:41.104Z,9.00
2022-11-12T18:02:26.541Z,6.80
2022-11-12T18:05:11.919Z,9.10
2022-11-12T18:07:57.231Z,8.50
2022-11-12T18:10:45.238Z,15.27
2022-11-12T18:13:31.091Z,13.63
2022-11-12T18:16:19.631Z,9.80
2022-11-12T18:19:06.350Z,10.10
2022-11-12T18:21:54.486Z,15.67
2022-11-12T18:24:39.902Z,11.47
2022-11-12T18:27:25.431Z,12.93
2022-11-12T18:30:16.405Z,14.93
2022-11-12T18:33:04.524Z,12.50
2022-11-12T18:36:02.129Z,13.33
2022-11-12T18:38:50.178Z,13.27
2022-11-12T18:41:35.916Z,15.10
2022-11-12T18:44:25.842Z,16.50
2022-11-12T18:47:11.579Z,17.13
2022-11-12T18:49:57.819Z,14.83
2022-11-12T18:52:43.688Z,19.50
2022-11-12T18:55:29.195Z,16.47
2022-11-12T18:58:17.910Z,16.07
2022-11-12T19:01:05.124Z,15.97
2022-11-12T19:03:55.836Z,21.47
2022-11-12T19:06:41.646Z,20.17
2022-11-12T19:09:28.275Z,20.30
2022-11-12T19:12:13.897Z,28.03
2022-11-12T19:14:59.474Z,18.27
2022-11-12T19:17:44.894Z,16.90
2022-11-12T19:21:14.333Z,20.57
2022-11-12T19:24:24.036Z,20.70
2022-11-12T19:27:11.685Z,21.90
2022-11-12T19:30:02.637Z,22.73
2022-11-12T19:32:48.701Z,18.60
2022-11-12T19:35:34.028Z,17.63
2022-11-12T19:38:19.645Z,20.30
2022-11-12T19:41:06.169Z,19.37
2022-11-12T19:43:52.469Z,22.87
2022-11-12T19:46:42.938Z,16.87
2022-11-12T19:52:57.887Z,19.67
2022-11-12T19:55:43.090Z,14.70
2022-11-12T19:58:29.713Z,20.53
2022-11-12T20:01:18.690Z,16.13
2022-11-12T20:04:04.412Z,18.47
2022-11-12T20:06:49.918Z,20.27
2022-11-12T20:09:35.230Z,17.80
2022-11-12T20:12:20.313Z,17.17
2022-11-12T20:15:07.683Z,15.83
2022-11-12T20:18:01.495Z,17.60
2022-11-12T20:21:11.448Z,18.20
2022-11-12T20:24:04.950Z,17.50
2022-11-12T20:26:50.631Z,35.43
2022-11-12T20:29:36.202Z,36.80
2022-11-12T20:32:22.797Z,34.80
2022-11-12T20:35:17.781Z,24.93
2022-11-12T20:38:05.363Z,28.33
2022-11-12T20:40:57.391Z,30.93
2022-11-12T20:43:44.546Z,21.87
2022-11-12T20:46:32.824Z,26.63
2022-11-12T20:49:18.617Z,18.90
2022-11-12T20:52:04.078Z,18.47
2022-11-12T20:54:58.388Z,18.43
2022-11-12T20:57:44.433Z,18.13
2022-11-12T21:00:29.846Z,19.63
2022-11-12T21:03:15.265Z,20.10
2022-11-12T21:06:26.446Z,18.33
2022-11-12T21:09:19.337Z,18.03
2022-11-12T21:15:23.786Z,22.40
2022-11-12T21:21:23.638Z,22.33
2022-11-12T21:24:17.517Z,25.70
2022-11-12T21:27:25.305Z,21.53
2022-11-12T21:30:11.325Z,23.53
2022-11-12T21:32:57.158Z,18.10
2022-11-12T21:36:09.471Z,22.67
2022-11-12T21:39:31.782Z,21.40
2022-11-12T21:45:26.161Z,18.67
2022-11-12T21:48:19.560Z,17.40
2022-11-12T21:51:13.874Z,17.37
2022-11-12T21:54:15.877Z,17.63
2022-11-12T21:57:16.135Z,20.17
2022-11-12T22:00:34.668Z,18.37
2022-11-12T22:03:11.930Z,17.03
2022-11-12T22:06:00.616Z,15.70
2022-11-12T22:08:50.473Z,17.20
2022-11-12T22:14:41.201Z,13.57
2022-11-12T22:17:28.736Z,16.33
2022-11-12T22:20:17.947Z,18.33
2022-11-12T22:26:25.838Z,15.40
2022-11-12T22:30:31.967Z,14.53
2022-11-12T22:32:31.328Z,21.10
2022-11-12T22:35:18.666Z,16.43
2022-11-12T22:38:12.289Z,15.20
2022-11-12T22:41:13.255Z,15.80
2022-11-12T22:44:06.440Z,17.30
2022-11-12T22:46:52.682Z,15.17
2022-11-12T22:49:41.382Z,13.40
2022-11-12T22:52:27.073Z,16.20
2022-11-12T22:55:12.201Z,15.40
2022-11-12T22:57:59.852Z,14.07
2022-11-12T23:00:45.348Z,14.80
2022-11-12T23:03:31.984Z,15.33
2022-11-12T23:06:18.199Z,14.10
2022-11-12T23:09:04.039Z,14.87
2022-11-12T23:11:49.214Z,13.10
2022-11-12T23:14:34.712Z,12.60
2022-11-12T23:17:20.597Z,13.27
2022-11-12T23:20:06.578Z,16.83
2022-11-12T23:22:52.263Z,13.37
2022-11-12T23:25:38.530Z,12.77
2022-11-12T23:28:23.943Z,16.87
2022-11-12T23:31:20.767Z,15.13
2022-11-12T23:34:06.040Z,14.47
2022-11-12T23:36:51.500Z,13.97
2022-11-12T23:39:36.984Z,13.07
2022-11-12T23:42:22.953Z,15.07
2022-11-12T23:45:08.965Z,15.43
2022-11-12T23:47:56.048Z,14.00
2022-11-12T23:50:41.832Z,15.93
2022-11-12T23:53:27.118Z,15.23
2022-11-12T23:56:14.670Z,16.43
2022-11-12T23:59:00.339Z,13.63
